createdAt,value
2023-02-16T05:27:43.921Z,31.33
2023-02-16T05:32:45.570Z,31.17
2023-02-16T05:37:47.244Z,33.27
2023-02-16T05:42:53.419Z,31.17
2023-02-16T05:47:55.164Z,32.53
2023-02-16T05:52:56.943Z,30.87
2023-02-16T05:57:58.743Z,34.83
2023-02-16T06:03:00.721Z,37.72
2023-02-16T06:08:02.453Z,33.73
2023-02-16T06:13:04.078Z,33.03
2023-02-16T06:18:05.795Z,31.87
2023-02-16T06:23:09.870Z,32.17
2023-02-16T06:28:11.775Z,32.30
2023-02-16T06:33:13.427Z,32.07
2023-02-16T06:38:15.232Z,33.40
2023-02-16T06:43:16.875Z,36.00
2023-02-16T06:48:18.525Z,35.23
2023-02-16T06:53:20.644Z,34.77
2023-02-16T06:58:22.299Z,34.13
2023-02-16T07:03:25.001Z,32.80
2023-02-16T07:08:26.909Z,33.23
2023-02-16T07:13:28.551Z,33.57
2023-02-16T07:18:30.373Z,32.93
2023-02-16T07:23:33.132Z,32.83
2023-02-16T07:28:36.005Z,32.60
2023-02-16T07:33:38.103Z,32.60
2023-02-16T07:38:42.005Z,33.53
2023-02-16T07:43:44.246Z,33.43
2023-02-16T07:48:50.211Z,33.07
2023-02-16T07:53:52.340Z,33.77
2023-02-16T07:58:59.273Z,34.10
2023-02-16T08:04:01.176Z,33.63
2023-02-16T08:09:03.624Z,34.57
2023-02-16T08:14:05.330Z,35.57
2023-02-16T08:19:07.298Z,33.63
2023-02-16T08:24:13.203Z,35.87
2023-02-16T08:29:14.954Z,33.20
2023-02-16T08:34:18.897Z,36.37
2023-02-16T08:39:23.150Z,38.70
2023-02-16T08:44:26.279Z,35.83
2023-02-16T08:49:28.441Z,34.13
2023-02-16T08:54:33.457Z,34.17
2023-02-16T08:59:35.475Z,33.67
2023-02-16T09:04:37.381Z,32.70
2023-02-16T09:09:41.080Z,34.17
2023-02-16T09:14:44.314Z,34.20
2023-02-16T09:19:46.048Z,34.60
2023-02-16T09:24:47.934Z,32.70
2023-02-16T09:29:50.063Z,33.07
2023-02-16T09:34:51.746Z,33.20
2023-02-16T09:39:53.477Z,32.37
2023-02-16T09:45:14.092Z,32.90
2023-02-16T09:50:52.086Z,32.87
2023-02-16T09:56:04.980Z,33.87
2023-02-16T10:01:42.792Z,33.83
2023-02-16T10:06:58.490Z,32.43
2023-02-16T10:12:11.145Z,33.27
2023-02-16T10:17:28.316Z,31.70
2023-02-16T10:22:36.894Z,32.70
2023-02-16T10:27:43.249Z,32.60
2023-02-16T10:32:59.604Z,33.93
2023-02-16T10:38:26.245Z,34.23
2023-02-16T10:44:02.836Z,36.73
2023-02-16T10:49:04.583Z,36.57
2023-02-16T10:54:28.354Z,34.23
2023-02-16T10:59:43.323Z,34.80
2023-02-16T11:04:48.805Z,33.70
2023-02-16T11:09:55.872Z,32.97
2023-02-16T11:15:28.719Z,34.10
2023-02-16T11:20:32.001Z,33.43
2023-02-16T11:25:33.879Z,34.67
2023-02-16T11:30:39.052Z,35.67
2023-02-16T11:35:43.574Z,33.87
2023-02-16T11:40:52.922Z,34.57
2023-02-16T11:46:01.032Z,34.57
2023-02-16T11:51:06.411Z,33.50
2023-02-16T11:56:24.965Z,35.00
2023-02-16T12:01:59.111Z,32.83
2023-02-16T12:07:08.473Z,32.00
2023-02-16T12:12:17.872Z,33.17
2023-02-16T12:17:41.208Z,32.67
2023-02-16T12:22:59.483Z,33.30
2023-02-16T12:28:28.379Z,33.43
2023-02-16T12:33:56.520Z,33.17
2023-02-16T12:39:07.134Z,34.27
2023-02-16T12:44:17.514Z,33.90
2023-02-16T12:49:47.678Z,33.80
2023-02-16T12:54:55.596Z,33.60
2023-02-16T13:00:15.700Z,34.83
2023-02-16T13:05:17.582Z,33.60
2023-02-16T13:10:38.449Z,34.93
2023-02-16T13:15:50.792Z,34.67
2023-02-16T13:21:03.330Z,34.40
2023-02-16T13:26:05.770Z,35.00
2023-02-16T13:31:49.596Z,36.57
2023-02-16T13:37:24.572Z,34.90
2023-02-16T13:42:44.455Z,35.13
2023-02-16T13:47:46.408Z,35.20
2023-02-16T13:52:49.512Z,35.80
2023-02-16T13:58:11.122Z,36.37
2023-02-16T14:03:32.702Z,36.40
2023-02-16T14:08:34.735Z,36.17
2023-02-16T14:13:39.574Z,39.27
2023-02-16T14:19:22.574Z,37.43
2023-02-16T14:24:34.472Z,36.23
2023-02-16T14:29:53.013Z,36.20
2023-02-16T14:35:03.777Z,34.40
2023-02-16T14:40:17.483Z,33.77
2023-02-16T14:45:42.100Z,37.80
2023-02-16T14:51:04.693Z,45.43
2023-02-16T14:56:33.461Z,39.30
2023-02-16T15:01:46.072Z,37.13
2023-02-16T15:06:48.432Z,36.33
2023-02-16T15:12:11.739Z,35.70
2023-02-16T15:17:30.366Z,36.50
2023-02-16T15:22:32.461Z,36.87
2023-02-16T15:27:35.013Z,36.20
2023-02-16T15:32:37.226Z,35.03
2023-02-16T15:37:40.621Z,36.47
2023-02-16T15:42:45.430Z,35.53
2023-02-16T15:47:47.456Z,37.57
2023-02-16T15:52:49.453Z,37.10
2023-02-16T15:57:51.396Z,37.40
2023-02-16T16:02:58.585Z,38.07
2023-02-16T16:08:02.737Z,36.30
2023-02-16T16:13:07.632Z,37.83
2023-02-16T16:18:32.161Z,35.07
2023-02-16T16:23:35.365Z,34.87
2023-02-16T16:28:38.136Z,36.87
2023-02-16T16:34:00.707Z,37.57
2023-02-16T16:39:19.592Z,37.70
2023-02-16T16:44:38.487Z,35.10
2023-02-16T16:50:01.135Z,33.57
2023-02-16T16:55:25.569Z,33.17
2023-02-16T17:00:36.811Z,32.80
2023-02-16T17:05:40.215Z,32.67
2023-02-16T17:10:43.536Z,32.63
2023-02-16T17:15:57.388Z,32.03
2023-02-16T17:20:59.664Z,31.03
2023-02-16T17:26:01.436Z,32.10
2023-02-16T17:31:08.441Z,30.70
2023-02-16T17:36:14.626Z,31.53
2023-02-16T17:41:28.106Z,31.17
2023-02-16T17:46:32.090Z,33.57
2023-02-16T17:51:36.392Z,33.60
2023-02-16T17:56:41.761Z,33.20
2023-02-16T18:01:45.011Z,32.27
2023-02-16T18:06:46.702Z,32.67
2023-02-16T18:11:48.399Z,34.17
2023-02-16T18:16:53.394Z,32.73
2023-02-16T18:21:55.251Z,33.93
2023-02-16T18:26:56.979Z,34.60
2023-02-16T18:31:58.780Z,36.00
2023-02-16T18:37:01.078Z,34.57
2023-02-16T18:42:02.879Z,33.83
2023-02-16T18:47:04.633Z,32.80
2023-02-16T18:52:06.388Z,34.17
2023-02-16T18:57:08.201Z,34.73
2023-02-16T19:02:12.028Z,32.53
2023-02-16T19:07:13.841Z,36.60
2023-02-16T19:12:15.568Z,39.80
2023-02-16T19:17:17.549Z,38.30
2023-02-16T19:22:19.286Z,37.23
2023-02-16T19:27:20.954Z,36.40
2023-02-16T19:32:22.718Z,41.83
2023-02-16T19:37:24.629Z,42.00
2023-02-16T19:42:26.524Z,45.20
2023-02-16T19:47:28.515Z,47.70
2023-02-16T19:52:30.407Z,40.60
2023-02-16T19:57:32.113Z,37.47
2023-02-16T20:02:33.781Z,37.13
2023-02-16T20:07:36.476Z,37.30
2023-02-16T20:12:38.201Z,36.67
2023-02-16T20:17:39.893Z,36.47
2023-02-16T20:22:41.779Z,37.40
2023-02-16T20:27:43.569Z,38.77
2023-02-16T20:32:48.916Z,38.27
2023-02-16T20:37:50.644Z,42.57
2023-02-16T20:42:52.361Z,41.97
2023-02-16T20:47:54.587Z,42.80
2023-02-16T20:52:56.254Z,40.10
2023-02-16T20:58:01.621Z,39.77
2023-02-16T21:03:03.279Z,39.03
2023-02-16T21:08:05.194Z,40.63
2023-02-16T21:13:07.137Z,39.33
2023-02-16T21:18:10.558Z,36.33
2023-02-16T21:23:12.240Z,36.50
2023-02-16T21:28:14.236Z,37.60
2023-02-16T21:33:15.990Z,37.07
2023-02-16T21:38:17.840Z,36.37
